createdAt,value
2017-05-24T00:00:43.505Z,1015.98
2017-05-24T00:05:42.319Z,1015.97
2017-05-24T00:10:38.260Z,1015.92
2017-05-24T00:15:34.082Z,1016.01
2017-05-24T00:20:31.479Z,1015.99
2017-05-24T00:50:41.477Z,1015.87
2017-05-24T00:55:41.073Z,1015.83
2017-05-24T01:10:45.641Z,1015.90
2017-05-24T01:15:52.640Z,1015.91
2017-05-24T01:25:48.945Z,1015.91
2017-05-24T01:35:52.422Z,1015.91
2017-05-24T01:50:51.386Z,1015.84
2017-05-24T02:00:52.169Z,1015.97
2017-05-24T02:21:01.718Z,1016.01
2017-05-24T02:25:57.019Z,1015.87
2017-05-24T02:30:53.238Z,1015.79
2017-05-24T02:35:49.876Z,1015.82
2017-05-24T02:51:01.001Z,1015.88
2017-05-24T02:55:56.900Z,1015.90
2017-05-24T03:00:53.026Z,1015.96
2017-05-24T03:05:48.990Z,1015.97
2017-05-24T03:10:47.180Z,1016.01
2017-05-24T03:20:42.481Z,1015.90
2017-05-24T03:25:39.805Z,1015.97
2017-05-24T03:30:35.766Z,1016.09
2017-05-24T03:35:31.458Z,1015.97
2017-05-24T03:40:29.384Z,1016.04
2017-05-24T03:45:24.676Z,1016.10
2017-05-24T03:50:21.257Z,1016.00
2017-05-24T03:55:17.473Z,1016.01
2017-05-24T04:00:14.746Z,1016.00
2017-05-24T04:05:10.175Z,1016.08
2017-05-24T04:10:05.825Z,1016.02
2017-05-24T04:15:02.973Z,1016.25
2017-05-24T04:20:03.931Z,1016.26
2017-05-24T04:25:01.107Z,1016.34
2017-05-24T04:29:56.793Z,1016.27
2017-05-24T04:34:53.010Z,1016.33
2017-05-24T04:44:52.947Z,1016.40
2017-05-24T04:49:50.004Z,1016.52
2017-05-24T04:54:47.474Z,1016.54
2017-05-24T04:59:43.220Z,1016.60
2017-05-24T05:09:51.575Z,1016.51
2017-05-24T05:14:46.435Z,1016.43
2017-05-24T05:19:43.654Z,1016.46
2017-05-24T05:24:41.125Z,1016.57
2017-05-24T05:29:38.701Z,1016.51
2017-05-24T05:34:34.846Z,1016.51
2017-05-24T05:39:31.747Z,1016.62
2017-05-24T05:44:28.560Z,1016.65
2017-05-24T05:49:27.662Z,1016.62
2017-05-24T05:54:24.489Z,1016.72
2017-05-24T05:59:19.977Z,1016.77
2017-05-24T06:04:18.209Z,1016.79
2017-05-24T06:09:13.558Z,1016.88
2017-05-24T06:14:09.911Z,1016.78
2017-05-24T06:19:06.262Z,1016.90
2017-05-24T06:24:01.874Z,1016.94
2017-05-24T06:28:58.887Z,1016.81
2017-05-24T06:33:55.407Z,1016.82
2017-05-24T06:38:51.057Z,1016.93
2017-05-24T06:43:51.435Z,1017.09
2017-05-24T06:48:46.267Z,1017.09
2017-05-24T06:53:42.515Z,1017.18
2017-05-24T06:58:39.199Z,1017.22
2017-05-24T07:03:35.464Z,1017.21
2017-05-24T07:08:32.900Z,1017.28
2017-05-24T07:13:27.800Z,1017.19
2017-05-24T07:18:24.540Z,1017.26
2017-05-24T07:23:20.232Z,1017.23
2017-05-24T07:28:16.729Z,1017.29
2017-05-24T07:33:12.460Z,1017.32
2017-05-24T07:38:08.401Z,1017.30
2017-05-24T07:43:04.035Z,1017.35
2017-05-24T07:53:00.817Z,1017.35
2017-05-24T07:57:59.534Z,1017.32
2017-05-24T08:02:55.522Z,1017.24
2017-05-24T08:07:53.917Z,1017.28
2017-05-24T08:12:50.116Z,1017.18
2017-05-24T08:17:45.568Z,1017.20
2017-05-24T08:22:41.953Z,1017.25
2017-05-24T08:27:38.607Z,1017.14
2017-05-24T08:32:35.553Z,1017.03
2017-05-24T08:37:31.507Z,1017.12
2017-05-24T08:42:28.889Z,1017.17
2017-05-24T08:47:24.111Z,1017.23
2017-05-24T08:52:19.751Z,1017.16
2017-05-24T08:57:15.920Z,1017.21
2017-05-24T09:02:11.368Z,1017.21
2017-05-24T09:07:07.871Z,1017.22
2017-05-24T09:12:04.274Z,1017.32
2017-05-24T09:17:00.712Z,1017.15
2017-05-24T09:21:57.670Z,1017.10
2017-05-24T09:26:55.555Z,1017.11
2017-05-24T09:31:51.663Z,1017.06
2017-05-24T09:36:49.115Z,1017.01
2017-05-24T09:41:51.955Z,1017.08
2017-05-24T09:46:47.061Z,1017.10
2017-05-24T09:51:42.941Z,1017.17
2017-05-24T09:56:44.523Z,1017.23
2017-05-24T10:01:40.793Z,1017.20
2017-05-24T10:06:38.069Z,1017.20
2017-05-24T10:11:34.581Z,1017.15
2017-05-24T10:16:30.548Z,1017.16
2017-05-24T10:21:27.508Z,1017.08
2017-05-24T10:26:25.229Z,1016.96
2017-05-24T10:31:21.938Z,1017.08
2017-05-24T10:36:18.273Z,1017.12
2017-05-24T10:41:15.767Z,1017.03
2017-05-24T10:51:28.184Z,1016.98
2017-05-24T11:01:27.070Z,1016.79
2017-05-24T11:11:25.582Z,1016.79
2017-05-24T11:16:23.572Z,1016.73
2017-05-24T11:21:20.417Z,1016.63
2017-05-24T11:26:15.637Z,1016.49
2017-05-24T11:36:14.885Z,1016.55
2017-05-24T11:46:11.804Z,1016.60
2017-05-24T11:51:10.839Z,1016.54
2017-05-24T11:56:07.107Z,1016.54
2017-05-24T12:01:05.096Z,1016.59
2017-05-24T12:05:59.030Z,1016.57
2017-05-24T12:10:54.472Z,1016.43
2017-05-24T12:20:54.775Z,1016.36
2017-05-24T12:25:49.027Z,1016.40
2017-05-24T12:30:48.908Z,1016.34
2017-05-24T12:35:45.214Z,1016.30
2017-05-24T12:40:41.005Z,1016.16
2017-05-24T12:45:36.411Z,1016.15
2017-05-24T12:50:32.094Z,1016.11
2017-05-24T12:55:27.268Z,1016.13
2017-05-24T13:00:22.765Z,1016.17
2017-05-24T13:05:18.669Z,1016.20
2017-05-24T13:10:14.250Z,1016.20
2017-05-24T13:15:10.410Z,1016.28
2017-05-24T13:20:05.915Z,1016.24
2017-05-24T13:25:02.996Z,1016.34
2017-05-24T13:29:59.411Z,1016.38
2017-05-24T13:34:54.580Z,1016.34
2017-05-24T13:39:50.235Z,1016.34
2017-05-24T13:44:45.915Z,1016.33
2017-05-24T13:49:41.333Z,1016.29
2017-05-24T13:54:37.245Z,1016.21
2017-05-24T13:59:35.486Z,1016.28
2017-05-24T14:04:37.392Z,1016.32
2017-05-24T14:09:33.301Z,1016.26
2017-05-24T14:19:31.328Z,1016.10
2017-05-24T14:24:27.642Z,1016.19
2017-05-24T14:29:23.624Z,1016.17
2017-05-24T14:34:20.042Z,1016.15
2017-05-24T14:39:16.092Z,1016.07
2017-05-24T14:44:11.802Z,1016.03
2017-05-24T14:49:07.585Z,1016.14
2017-05-24T14:54:03.313Z,1016.09
2017-05-24T14:58:59.281Z,1016.03
2017-05-24T15:03:55.677Z,1015.89
2017-05-24T15:13:55.912Z,1015.96
2017-05-24T15:18:51.364Z,1016.06
2017-05-24T15:23:50.665Z,1016.06
2017-05-24T15:28:50.373Z,1015.97
2017-05-24T15:33:44.826Z,1015.92
2017-05-24T15:38:41.970Z,1015.93
2017-05-24T15:43:38.661Z,1015.97
2017-05-24T15:48:36.657Z,1016.01
2017-05-24T16:03:33.581Z,1015.72
2017-05-24T16:08:39.901Z,1015.77
2017-05-24T16:13:33.896Z,1015.78
2017-05-24T16:18:29.288Z,1015.81
2017-05-24T16:23:25.242Z,1015.76
2017-05-24T16:28:21.797Z,1015.72
2017-05-24T16:33:17.564Z,1015.72
2017-05-24T16:38:13.524Z,1015.73
2017-05-24T16:43:09.235Z,1015.69
2017-05-24T16:48:04.938Z,1015.71
2017-05-24T16:53:01.434Z,1015.53
2017-05-24T16:57:58.504Z,1015.61
2017-05-24T17:02:54.234Z,1015.61
2017-05-24T17:07:50.496Z,1015.53
2017-05-24T17:12:47.406Z,1015.60
2017-05-24T17:17:42.870Z,1015.65
2017-05-24T17:22:40.134Z,1015.76
2017-05-24T17:27:35.958Z,1015.63
2017-05-24T17:32:31.674Z,1015.56
2017-05-24T17:37:28.164Z,1015.64
2017-05-24T17:42:24.944Z,1015.70
2017-05-24T17:47:20.800Z,1015.70
2017-05-24T17:52:17.131Z,1015.76
2017-05-24T17:57:13.045Z,1015.72
2017-05-24T18:02:11.480Z,1015.76
2017-05-24T18:07:06.426Z,1015.76
2017-05-24T18:12:03.227Z,1015.85
2017-05-24T18:16:58.684Z,1015.89
2017-05-24T18:21:55.587Z,1015.84
2017-05-24T18:26:52.008Z,1015.83
2017-05-24T18:31:47.740Z,1015.82
2017-05-24T18:36:43.823Z,1015.88
2017-05-24T18:41:39.929Z,1015.91
2017-05-24T18:46:35.813Z,1015.87
2017-05-24T18:51:31.630Z,1015.95
2017-05-24T18:56:27.507Z,1015.91
2017-05-24T19:01:23.653Z,1015.96
2017-05-24T19:06:19.518Z,1015.99
2017-05-24T19:11:16.265Z,1016.04
2017-05-24T19:16:12.837Z,1016.05
2017-05-24T19:21:07.956Z,1016.13
2017-05-24T19:26:05.100Z,1016.09
2017-05-24T19:31:02.454Z,1016.13
2017-05-24T19:35:58.033Z,1016.20
2017-05-24T19:40:54.735Z,1016.24
2017-05-24T19:45:50.452Z,1016.24
2017-05-24T19:50:47.529Z,1016.19
2017-05-24T19:55:42.523Z,1016.24
2017-05-24T20:00:38.680Z,1016.38
2017-05-24T20:05:34.628Z,1016.38
2017-05-24T20:10:31.022Z,1016.35
2017-05-24T20:15:26.875Z,1016.42
2017-05-24T20:20:23.023Z,1016.53
2017-05-24T20:25:18.815Z,1016.53
2017-05-24T20:30:15.175Z,1016.50
2017-05-24T20:35:10.720Z,1016.58
2017-05-24T20:40:06.458Z,1016.66
2017-05-24T20:45:02.200Z,1016.55
2017-05-24T20:49:58.102Z,1016.61
2017-05-24T20:54:54.195Z,1016.61
2017-05-24T20:59:52.282Z,1016.62
2017-05-24T21:04:48.861Z,1016.61
2017-05-24T21:09:43.845Z,1016.60
2017-05-24T21:14:39.962Z,1016.77
2017-05-24T21:19:40.081Z,1016.83
2017-05-24T21:24:34.831Z,1016.85
2017-05-24T21:29:30.357Z,1016.93
2017-05-24T21:34:27.214Z,1016.94
2017-05-24T21:39:23.016Z,1016.88
2017-05-24T21:44:20.030Z,1016.93
2017-05-24T21:49:16.708Z,1016.88
2017-05-24T21:54:12.180Z,1016.80
2017-05-24T21:59:08.528Z,1016.90
2017-05-24T22:04:04.684Z,1016.85
2017-05-24T22:09:01.336Z,1016.87
2017-05-24T22:13:59.458Z,1016.95
2017-05-24T22:18:55.417Z,1016.86
2017-05-24T22:23:52.215Z,1016.92
2017-05-24T22:28:49.897Z,1016.97
2017-05-24T22:33:47.507Z,1016.92
2017-05-24T22:38:42.463Z,1017.01
2017-05-24T22:43:38.298Z,1017.15
2017-05-24T22:48:34.689Z,1017.29
2017-05-24T22:53:31.572Z,1017.22
2017-05-24T22:58:26.924Z,1017.22
2017-05-24T23:03:22.596Z,1017.25
2017-05-24T23:08:18.716Z,1017.20
2017-05-24T23:13:14.663Z,1017.20
2017-05-24T23:18:10.463Z,1017.14
2017-05-24T23:23:06.854Z,1017.20
2017-05-24T23:28:02.041Z,1017.13
2017-05-24T23:32:58.564Z,1017.20
2017-05-24T23:42:54.227Z,1017.24
2017-05-24T23:47:50.127Z,1017.21
2017-05-24T23:52:46.970Z,1017.32
2017-05-24T23:57:42.651Z,1017.33
